Main page
METAR-TAF:

METAR-TAF

Airports :

Clermont-Ferrand Auvergne Airport

Clermont-Ferrand, France

latitude: 45-47N, longitude: 003-10E, elevation: 332 m

Current weather observation

The report was made 14 minutes ago, at 23:30 UTC
Wind 2 kt from variable directions
Temperature 19°C
Humidity 73%
Pressure 1015 hPa
Visibility 10 km or more
Broken clouds at a height of 3600 ft
Overcast at a height of 4400 ft

METAR: LFLC 302330Z AUTO VRB02KT 9999 BKN036 OVC044 19/14 Q1015 NOSIG

Time: 01:44 (23:44 UTC)

Forecast

The report was made 6 hours and 44 minutes ago, at 17:00 UTC
Forecast valid from 30 at 18 UTC to 31 at 18 UTC
Wind 8 kt from the West
Visibility 10 km or more
Broken clouds at a height of 5000 ft
Becoming
from 31 at 01 UTC to 31 at 03 UTC
Wind 7 kt from the East/Northeast

TAF: LFLC 301700Z 3018/3118 27008KT 9999 BKN050 BECMG 3101/3103 07007KT

Weather observations and forecasts of more than 4000 airports (METAR and TAF reports).

The available stations are represented by yellow and red dots on the map.

Hover mouse over dot to see the name of the station.

Then click to see weather observations and forecasts.

To change the map : click on the green buttons with a black cross to zoom in, on the green button with a dash to zoom out, or on the green arrows for adjacent maps.


METAR-TAF: